createdAt,value
2023-02-08T00:01:00.268Z,13.50
2023-02-08T00:03:29.272Z,13.32
2023-02-08T00:05:56.693Z,12.75
2023-02-08T00:08:23.995Z,13.35
2023-02-08T00:10:51.165Z,13.93
2023-02-08T00:13:19.004Z,13.73
2023-02-08T00:15:47.488Z,14.48
2023-02-08T00:18:15.060Z,13.30
2023-02-08T00:20:43.878Z,13.55
2023-02-08T00:23:12.281Z,13.60
2023-02-08T00:25:41.293Z,13.25
2023-02-08T00:28:12.542Z,12.18
2023-02-08T00:30:41.732Z,10.77
2023-02-08T00:33:09.659Z,10.70
2023-02-08T00:35:37.321Z,9.88
2023-02-08T00:38:04.668Z,9.98
2023-02-08T00:40:31.771Z,9.88
2023-02-08T00:42:58.897Z,9.07
2023-02-08T00:45:25.962Z,10.20
2023-02-08T00:47:53.188Z,9.00
2023-02-08T00:50:20.508Z,8.85
2023-02-08T00:52:47.690Z,9.20
2023-02-08T00:55:14.711Z,8.98
2023-02-08T00:57:41.873Z,8.50
2023-02-08T01:00:09.690Z,8.18
2023-02-08T01:02:39.183Z,7.25
2023-02-08T01:05:07.015Z,7.25
2023-02-08T01:07:37.346Z,6.68
2023-02-08T01:10:06.919Z,7.65
2023-02-08T01:12:34.419Z,7.68
2023-02-08T01:15:01.760Z,7.22
2023-02-08T01:17:28.892Z,8.35
2023-02-08T01:19:56.023Z,7.68
2023-02-08T01:22:23.125Z,7.50
2023-02-08T01:24:50.430Z,7.43
2023-02-08T01:27:17.940Z,6.97
2023-02-08T01:29:45.236Z,7.18
2023-02-08T01:32:12.405Z,7.55
2023-02-08T01:34:39.601Z,7.53
2023-02-08T01:37:06.751Z,7.13
2023-02-08T01:39:34.101Z,7.07
2023-02-08T01:42:01.250Z,7.25
2023-02-08T01:45:21.027Z,7.47
2023-02-08T01:47:53.652Z,6.40
2023-02-08T01:50:23.635Z,6.47
2023-02-08T01:52:51.857Z,6.88
2023-02-08T01:55:26.959Z,6.57
2023-02-08T01:57:57.690Z,6.53
2023-02-08T02:00:25.438Z,6.65
2023-02-08T02:02:55.388Z,6.78
2023-02-08T02:05:26.337Z,6.30
2023-02-08T02:07:55.598Z,6.28
2023-02-08T02:10:32.543Z,6.50
2023-02-08T02:13:18.546Z,6.60
2023-02-08T02:15:46.200Z,7.05
2023-02-08T02:18:18.588Z,6.35
2023-02-08T02:21:16.756Z,6.97
2023-02-08T02:24:12.061Z,6.45
2023-02-08T02:27:17.032Z,6.90
2023-02-08T02:30:05.202Z,6.55
2023-02-08T02:32:41.343Z,6.40
2023-02-08T02:35:36.010Z,6.32
2023-02-08T02:38:16.738Z,7.07
2023-02-08T02:41:06.270Z,6.72
2023-02-08T02:43:46.440Z,16.80
2023-02-08T02:46:24.364Z,7.53
2023-02-08T02:49:10.048Z,6.78
2023-02-08T02:51:46.934Z,6.68
2023-02-08T02:54:19.044Z,7.45
2023-02-08T02:56:53.844Z,6.30
2023-02-08T02:59:22.789Z,6.40
2023-02-08T03:01:50.125Z,6.18
2023-02-08T03:04:39.872Z,6.75
2023-02-08T03:07:51.751Z,6.97
2023-02-08T03:10:32.529Z,6.32
2023-02-08T03:13:51.637Z,6.57
2023-02-08T03:16:24.400Z,6.22
2023-02-08T03:19:33.837Z,6.00
2023-02-08T03:22:15.035Z,5.78
2023-02-08T03:24:59.694Z,6.88
2023-02-08T03:27:56.072Z,6.30
2023-02-08T03:30:45.944Z,6.47
2023-02-08T03:33:20.138Z,6.60
2023-02-08T03:36:06.104Z,6.38
2023-02-08T03:38:43.767Z,6.97
2023-02-08T03:41:22.984Z,7.18
2023-02-08T03:44:02.599Z,6.40
2023-02-08T03:46:36.600Z,6.93
2023-02-08T03:49:14.212Z,6.53
2023-02-08T03:51:43.294Z,7.53
2023-02-08T03:54:18.312Z,7.07
2023-02-08T03:57:11.071Z,6.78
2023-02-08T03:59:42.094Z,7.28
2023-02-08T04:02:18.578Z,7.05
2023-02-08T04:04:48.787Z,8.07
2023-02-08T04:07:18.154Z,6.95
2023-02-08T04:09:45.710Z,7.38
2023-02-08T04:12:13.164Z,6.93
2023-02-08T04:14:40.276Z,6.20
2023-02-08T04:17:07.478Z,7.10
2023-02-08T04:19:34.765Z,7.32
2023-02-08T04:22:02.114Z,6.68
2023-02-08T04:24:29.294Z,7.07
2023-02-08T04:26:56.675Z,6.47
2023-02-08T04:29:24.203Z,7.13
2023-02-08T04:31:51.475Z,6.53
2023-02-08T04:34:18.732Z,7.40
2023-02-08T04:36:45.896Z,7.20
2023-02-08T04:39:13.193Z,7.55
2023-02-08T04:41:40.336Z,6.80
2023-02-08T04:44:07.630Z,7.05
2023-02-08T04:46:34.935Z,7.50
2023-02-08T04:49:02.129Z,7.22
2023-02-08T04:51:29.549Z,7.25
2023-02-08T04:53:56.939Z,7.75
2023-02-08T04:56:24.403Z,6.53
2023-02-08T04:58:51.920Z,7.32
2023-02-08T05:01:19.488Z,7.63
2023-02-08T05:03:47.570Z,7.57
2023-02-08T05:06:14.860Z,7.45
2023-02-08T05:08:42.334Z,8.02
2023-02-08T05:11:09.867Z,7.15
2023-02-08T05:13:37.306Z,7.60
2023-02-08T05:16:04.878Z,7.70
2023-02-08T05:18:32.642Z,7.88
2023-02-08T05:21:01.387Z,7.60
2023-02-08T05:23:28.808Z,8.00
2023-02-08T05:25:56.148Z,8.55
2023-02-08T05:28:24.057Z,8.88
2023-02-08T05:30:51.909Z,8.20
2023-02-08T05:33:19.642Z,7.68
2023-02-08T05:35:47.076Z,7.82
2023-02-08T05:38:14.479Z,8.07
2023-02-08T05:40:42.145Z,7.90
2023-02-08T05:43:09.763Z,8.52
2023-02-08T05:45:37.293Z,8.40
2023-02-08T05:48:04.622Z,7.63
2023-02-08T05:50:32.226Z,8.32
2023-02-08T05:52:59.715Z,8.07
2023-02-08T05:55:28.754Z,8.05
2023-02-08T05:57:56.366Z,8.55
2023-02-08T06:00:24.031Z,8.70
2023-02-08T06:02:51.509Z,8.98
2023-02-08T06:05:18.947Z,8.52
2023-02-08T06:07:46.546Z,7.90
2023-02-08T06:10:13.978Z,8.38
2023-02-08T06:12:41.383Z,8.65
2023-02-08T06:15:09.149Z,7.90
2023-02-08T06:17:36.403Z,8.93
2023-02-08T06:20:04.299Z,8.65
2023-02-08T06:22:34.242Z,8.70
2023-02-08T06:25:02.165Z,8.95
2023-02-08T06:27:29.617Z,9.38
2023-02-08T06:29:57.399Z,9.40
2023-02-08T06:32:26.114Z,10.30
2023-02-08T06:34:53.469Z,10.02
2023-02-08T06:37:20.957Z,9.35
2023-02-08T06:39:48.217Z,9.27
2023-02-08T06:42:15.675Z,8.85
2023-02-08T06:44:54.190Z,9.40
2023-02-08T06:47:23.532Z,9.55
2023-02-08T06:49:51.129Z,8.77
2023-02-08T06:52:19.669Z,9.68
2023-02-08T06:54:47.191Z,9.68
2023-02-08T06:57:14.365Z,9.77
2023-02-08T06:59:42.847Z,9.63
2023-02-08T07:02:18.212Z,9.30
2023-02-08T07:04:48.069Z,9.55
2023-02-08T07:07:17.419Z,8.90
2023-02-08T07:09:46.010Z,9.10
2023-02-08T07:12:13.616Z,9.40
2023-02-08T07:14:43.006Z,9.80
2023-02-08T07:17:11.522Z,9.02
2023-02-08T07:19:39.275Z,9.70
2023-02-08T07:22:10.879Z,9.93
2023-02-08T07:24:40.094Z,9.93
2023-02-08T07:27:08.727Z,9.80
2023-02-08T07:29:36.739Z,10.35
2023-02-08T07:32:05.779Z,10.63
2023-02-08T07:34:35.420Z,12.15
2023-02-08T07:37:04.095Z,11.45
2023-02-08T07:39:31.567Z,11.93
2023-02-08T07:41:59.427Z,12.25
2023-02-08T07:44:27.046Z,12.23
2023-02-08T07:46:54.597Z,12.05
2023-02-08T07:49:22.132Z,12.20
2023-02-08T07:51:49.298Z,12.57
2023-02-08T07:54:16.790Z,11.90
2023-02-08T07:56:44.120Z,11.50
2023-02-08T07:59:11.606Z,11.07
2023-02-08T08:01:38.888Z,10.60
2023-02-08T08:04:06.732Z,10.35
2023-02-08T08:06:34.148Z,10.05
2023-02-08T08:09:01.811Z,10.00
2023-02-08T08:11:29.402Z,10.43
2023-02-08T08:13:56.810Z,10.05
2023-02-08T08:16:24.586Z,10.68
2023-02-08T08:18:52.186Z,10.50
2023-02-08T08:21:19.572Z,11.15
2023-02-08T08:23:46.864Z,10.32
2023-02-08T08:26:19.618Z,10.50
2023-02-08T08:28:47.452Z,11.85
2023-02-08T08:31:20.368Z,11.82
2023-02-08T08:33:48.596Z,12.02
2023-02-08T08:36:15.953Z,11.57
2023-02-08T08:38:43.409Z,12.18
2023-02-08T08:41:15.093Z,12.02
2023-02-08T08:43:45.589Z,11.68
2023-02-08T08:46:13.099Z,11.75
2023-02-08T08:48:40.436Z,11.38
2023-02-08T08:51:08.276Z,11.60
2023-02-08T08:53:37.114Z,11.43
2023-02-08T08:56:04.852Z,11.05
2023-02-08T08:58:31.903Z,10.95
2023-02-08T09:01:00.421Z,11.00
2023-02-08T09:03:29.079Z,10.57
2023-02-08T09:05:56.610Z,11.57
2023-02-08T09:08:24.318Z,10.80
2023-02-08T09:10:51.656Z,11.27
2023-02-08T09:13:20.352Z,11.27
2023-02-08T09:15:49.190Z,11.57
2023-02-08T09:18:16.731Z,10.52
2023-02-08T09:20:44.446Z,11.10
2023-02-08T09:23:12.941Z,11.60
2023-02-08T09:25:40.594Z,10.90
2023-02-08T09:28:08.225Z,10.73
2023-02-08T09:30:35.633Z,10.63
2023-02-08T09:33:03.022Z,11.60
2023-02-08T09:35:30.503Z,10.82
2023-02-08T09:37:58.528Z,11.32
2023-02-08T09:40:30.068Z,11.48
2023-02-08T09:43:24.683Z,10.80
2023-02-08T09:46:00.712Z,10.13
2023-02-08T09:48:36.316Z,10.35
2023-02-08T09:51:27.895Z,10.05
2023-02-08T09:54:03.547Z,11.02
2023-02-08T09:56:37.199Z,10.68
2023-02-08T09:59:06.332Z,11.45
2023-02-08T10:01:36.158Z,10.43
2023-02-08T10:04:14.822Z,9.35
2023-02-08T10:06:42.261Z,9.98
2023-02-08T10:09:14.612Z,10.38
2023-02-08T10:12:01.975Z,8.73
2023-02-08T10:14:40.390Z,8.25
2023-02-08T10:17:51.930Z,8.32
2023-02-08T10:20:28.432Z,6.90
2023-02-08T10:23:33.905Z,8.02
2023-02-08T10:28:53.388Z,7.32
2023-02-08T10:31:46.397Z,8.10
2023-02-08T10:34:38.228Z,8.07
2023-02-08T10:37:34.957Z,7.60
2023-02-08T10:40:31.123Z,8.25
2023-02-08T10:43:19.744Z,8.15
2023-02-08T10:46:24.966Z,8.13
2023-02-08T10:49:10.465Z,7.63
2023-02-08T10:51:37.785Z,8.60
2023-02-08T10:54:05.633Z,8.27
2023-02-08T10:56:44.240Z,8.35
2023-02-08T10:59:27.822Z,8.13
2023-02-08T11:01:56.561Z,7.55
2023-02-08T11:04:24.512Z,7.93
2023-02-08T11:06:54.278Z,6.60
2023-02-08T11:09:24.989Z,6.97
2023-02-08T11:11:53.379Z,7.05
2023-02-08T11:14:46.015Z,7.38
2023-02-08T11:17:34.118Z,6.60
2023-02-08T11:20:01.404Z,7.07
2023-02-08T11:22:34.569Z,6.65
2023-02-08T11:25:06.004Z,6.88
2023-02-08T11:27:45.214Z,7.15
2023-02-08T11:30:15.878Z,6.75
2023-02-08T11:32:45.524Z,6.28
2023-02-08T11:35:22.045Z,6.85
2023-02-08T11:37:58.962Z,6.68
2023-02-08T11:40:36.077Z,6.78
2023-02-08T11:43:04.801Z,6.45
2023-02-08T11:45:36.453Z,6.20
2023-02-08T11:48:07.422Z,5.47
2023-02-08T11:50:38.742Z,6.78
2023-02-08T11:53:21.618Z,5.72
2023-02-08T11:56:02.512Z,5.60
2023-02-08T11:58:29.948Z,4.53
2023-02-08T12:01:21.177Z,4.88
2023-02-08T12:03:50.887Z,5.05
2023-02-08T12:07:00.973Z,4.60
2023-02-08T12:09:34.315Z,4.50
2023-02-08T12:12:38.942Z,4.57
2023-02-08T12:15:57.021Z,5.00
2023-02-08T12:18:34.117Z,5.07
2023-02-08T12:21:16.322Z,5.20
2023-02-08T12:24:24.521Z,4.95
2023-02-08T12:27:05.073Z,4.65
2023-02-08T12:29:47.851Z,4.93
2023-02-08T12:32:21.344Z,5.53
2023-02-08T12:35:04.652Z,5.38
2023-02-08T12:38:23.977Z,5.40
2023-02-08T12:41:00.016Z,5.28
2023-02-08T12:43:33.459Z,4.18
2023-02-08T12:46:27.273Z,5.60
2023-02-08T12:49:04.812Z,5.55
2023-02-08T12:51:44.136Z,5.90
2023-02-08T12:54:16.540Z,5.15
2023-02-08T12:56:56.920Z,5.25
2023-02-08T12:59:43.841Z,5.40
2023-02-08T13:02:34.145Z,4.97
2023-02-08T13:05:07.183Z,4.50
2023-02-08T13:07:40.076Z,6.40
2023-02-08T13:10:13.462Z,4.70
2023-02-08T13:12:45.879Z,4.60
2023-02-08T13:15:30.466Z,5.13
2023-02-08T13:18:00.171Z,5.75
2023-02-08T13:20:48.030Z,5.43
2023-02-08T13:23:34.772Z,5.32
2023-02-08T13:26:23.086Z,5.00
2023-02-08T13:28:55.846Z,4.65
2023-02-08T13:31:27.301Z,5.80
2023-02-08T13:34:08.433Z,6.18
2023-02-08T13:36:42.394Z,5.45
2023-02-08T13:39:31.904Z,5.80
2023-02-08T13:42:00.128Z,5.90
2023-02-08T13:44:32.528Z,6.20
2023-02-08T13:47:00.128Z,5.47
2023-02-08T13:49:45.041Z,5.63
2023-02-08T13:52:46.503Z,6.00
2023-02-08T13:55:33.620Z,6.40
2023-02-08T13:58:04.320Z,5.53
2023-02-08T14:00:36.100Z,5.60
2023-02-08T14:03:07.630Z,6.10
2023-02-08T14:05:49.589Z,5.90
2023-02-08T14:08:31.879Z,4.97
2023-02-08T14:11:18.430Z,6.85
2023-02-08T14:13:58.508Z,6.10
2023-02-08T14:16:33.451Z,6.53
2023-02-08T14:19:03.769Z,6.30
2023-02-08T14:21:36.551Z,7.00
2023-02-08T14:24:07.360Z,6.90
2023-02-08T14:26:36.771Z,5.80
2023-02-08T14:29:07.277Z,6.05
2023-02-08T14:31:45.375Z,5.75
2023-02-08T14:34:28.183Z,6.78
2023-02-08T14:37:03.075Z,6.10
2023-02-08T14:42:10.734Z,6.38
2023-02-08T14:44:48.169Z,6.88
2023-02-08T14:47:24.865Z,6.55
2023-02-08T14:50:04.327Z,6.45
2023-02-08T14:52:35.435Z,6.50
2023-02-08T14:55:27.726Z,7.32
2023-02-08T14:58:00.993Z,7.20
2023-02-08T15:00:34.919Z,7.07
2023-02-08T15:03:05.475Z,7.50
2023-02-08T15:05:41.928Z,8.18
2023-02-08T15:08:09.499Z,7.75
2023-02-08T15:10:45.075Z,7.65
2023-02-08T15:13:20.989Z,8.18
2023-02-08T15:15:53.542Z,7.78
2023-02-08T15:18:25.065Z,7.43
2023-02-08T15:21:17.700Z,7.28
2023-02-08T15:23:58.952Z,7.30
2023-02-08T15:26:27.013Z,7.75
2023-02-08T15:28:55.174Z,8.30
2023-02-08T15:31:28.458Z,8.32
2023-02-08T15:33:55.859Z,8.52
2023-02-08T15:36:28.343Z,8.90
2023-02-08T15:38:58.219Z,10.13
2023-02-08T15:41:28.682Z,10.20
2023-02-08T15:44:23.827Z,10.10
2023-02-08T15:46:55.709Z,8.95
2023-02-08T15:49:40.152Z,8.77
2023-02-08T15:52:09.037Z,10.35
2023-02-08T15:54:36.449Z,9.85
2023-02-08T15:57:21.182Z,9.80
2023-02-08T15:59:49.496Z,10.18
2023-02-08T16:02:33.516Z,10.93
2023-02-08T16:05:03.086Z,11.38
2023-02-08T16:07:37.750Z,10.55
2023-02-08T16:10:07.840Z,11.98
2023-02-08T16:12:36.205Z,11.48
2023-02-08T16:15:03.569Z,11.40
2023-02-08T16:17:43.096Z,12.20
2023-02-08T16:20:27.853Z,13.07
2023-02-08T16:23:22.455Z,13.45
2023-02-08T16:25:50.235Z,12.07
2023-02-08T16:28:31.249Z,11.77
2023-02-08T16:31:01.329Z,13.65
2023-02-08T16:33:30.569Z,14.02
2023-02-08T16:36:06.999Z,13.88
2023-02-08T16:38:34.838Z,19.27
2023-02-08T16:41:13.194Z,22.50
2023-02-08T16:43:46.558Z,26.42
2023-02-08T16:46:18.422Z,18.30
2023-02-08T16:48:57.976Z,20.95
2023-02-08T16:51:28.570Z,14.35
2023-02-08T16:54:01.186Z,15.95
2023-02-08T16:56:28.841Z,13.40
2023-02-08T16:58:56.132Z,13.60
2023-02-08T17:01:26.814Z,15.45
2023-02-08T17:03:54.434Z,15.63
2023-02-08T17:06:31.103Z,14.45
2023-02-08T17:09:00.764Z,16.45
2023-02-08T17:11:28.637Z,15.32
2023-02-08T17:13:57.155Z,17.40
2023-02-08T17:16:27.414Z,15.50
2023-02-08T17:18:54.832Z,17.40
2023-02-08T17:21:22.785Z,15.73
2023-02-08T17:23:50.413Z,15.05
2023-02-08T17:26:22.521Z,15.75
2023-02-08T17:28:50.680Z,15.68
2023-02-08T17:31:18.445Z,14.05
2023-02-08T17:33:45.868Z,14.50
2023-02-08T17:36:15.045Z,15.73
2023-02-08T17:38:44.220Z,15.85
2023-02-08T17:41:20.552Z,13.48
2023-02-08T17:43:53.368Z,15.27
2023-02-08T17:46:24.394Z,14.48
2023-02-08T17:48:52.963Z,14.07
2023-02-08T17:51:23.835Z,15.13
2023-02-08T17:53:51.860Z,16.50
2023-02-08T17:56:22.250Z,14.98
2023-02-08T17:58:53.687Z,17.67
2023-02-08T18:01:27.078Z,16.98
2023-02-08T18:03:55.446Z,15.75
2023-02-08T18:06:26.448Z,15.35
2023-02-08T18:08:56.518Z,16.95
2023-02-08T18:11:24.256Z,16.65
2023-02-08T18:13:53.585Z,17.30
2023-02-08T18:16:24.561Z,15.68
2023-02-08T18:18:55.539Z,14.93
2023-02-08T18:21:25.692Z,14.10
2023-02-08T18:23:53.074Z,14.65
2023-02-08T18:26:22.756Z,13.70
2023-02-08T18:28:51.826Z,12.30
2023-02-08T18:31:20.550Z,12.90
2023-02-08T18:33:49.869Z,12.45
2023-02-08T18:36:18.359Z,12.98
2023-02-08T18:38:47.917Z,13.55
2023-02-08T18:41:19.933Z,12.07
2023-02-08T18:43:48.210Z,13.05
2023-02-08T18:46:18.673Z,12.93
2023-02-08T18:48:47.151Z,13.18
2023-02-08T18:51:18.841Z,14.07
2023-02-08T18:53:51.548Z,13.52
2023-02-08T18:56:22.993Z,13.18
2023-02-08T18:58:54.862Z,14.02
2023-02-08T19:01:24.866Z,13.90
2023-02-08T19:03:53.355Z,15.18
2023-02-08T19:06:24.937Z,14.23
2023-02-08T19:08:54.510Z,15.75
2023-02-08T19:11:25.151Z,14.52
2023-02-08T19:13:53.706Z,19.38
2023-02-08T19:16:22.563Z,17.17
2023-02-08T19:18:50.494Z,18.77
2023-02-08T19:21:18.718Z,15.52
2023-02-08T19:23:47.558Z,16.27
2023-02-08T19:26:21.317Z,26.02
2023-02-08T19:28:49.568Z,13.93
2023-02-08T19:31:20.416Z,14.52
2023-02-08T19:33:50.411Z,16.33
2023-02-08T19:36:21.484Z,16.67
2023-02-08T19:38:49.846Z,27.80
2023-02-08T19:41:20.485Z,30.00
2023-02-08T19:43:49.039Z,39.75
2023-02-08T19:46:22.493Z,17.70
2023-02-08T19:48:51.242Z,17.02
2023-02-08T19:51:19.833Z,14.18
2023-02-08T19:53:47.865Z,14.23
2023-02-08T19:56:17.300Z,13.38
2023-02-08T19:58:45.803Z,12.95
2023-02-08T20:01:17.275Z,18.40
2023-02-08T20:03:46.568Z,15.10
2023-02-08T20:06:23.593Z,14.27
2023-02-08T20:08:52.030Z,14.10
2023-02-08T20:11:22.861Z,13.70
2023-02-08T20:13:51.622Z,13.02
2023-02-08T20:16:20.082Z,14.35
2023-02-08T20:18:47.971Z,13.27
2023-02-08T20:21:15.328Z,14.07
2023-02-08T20:23:42.867Z,12.95
2023-02-08T20:26:16.817Z,12.45
2023-02-08T20:28:47.658Z,14.75
2023-02-08T20:31:18.726Z,15.05
2023-02-08T20:33:46.657Z,14.93
2023-02-08T20:36:24.114Z,13.25
2023-02-08T20:38:53.616Z,14.70
2023-02-08T20:41:22.416Z,14.60
2023-02-08T20:43:50.196Z,13.98
2023-02-08T20:46:23.496Z,14.15
2023-02-08T20:48:51.919Z,13.57
2023-02-08T20:51:22.189Z,14.90
2023-02-08T20:53:50.265Z,14.07
2023-02-08T20:56:20.726Z,14.05
2023-02-08T20:58:48.805Z,14.00
2023-02-08T21:01:19.634Z,13.95
2023-02-08T21:03:46.964Z,13.27
2023-02-08T21:06:29.516Z,13.32
2023-02-08T21:08:58.309Z,13.98
2023-02-08T21:11:28.980Z,14.15
2023-02-08T21:13:57.104Z,14.68
2023-02-08T21:16:24.686Z,13.82
2023-02-08T21:18:52.334Z,14.07
2023-02-08T21:21:20.579Z,14.52
2023-02-08T21:23:47.984Z,15.93
2023-02-08T21:26:20.702Z,17.80
2023-02-08T21:28:48.439Z,16.92
2023-02-08T21:31:20.092Z,16.33
2023-02-08T21:33:47.945Z,15.30
2023-02-08T21:36:17.944Z,15.77
2023-02-08T21:38:46.160Z,15.10
2023-02-08T21:41:25.252Z,15.23
2023-02-08T21:43:56.590Z,15.40
2023-02-08T21:46:28.425Z,15.25
2023-02-08T21:49:16.252Z,15.20
2023-02-08T21:52:02.952Z,15.95
2023-02-08T21:54:42.912Z,15.02
2023-02-08T21:57:19.250Z,16.08
2023-02-08T21:59:48.771Z,17.05
2023-02-08T22:02:23.405Z,17.92
2023-02-08T22:05:21.749Z,16.88
2023-02-08T22:07:57.506Z,15.60
2023-02-08T22:10:27.792Z,16.88
2023-02-08T22:12:55.373Z,15.70
2023-02-08T22:15:25.969Z,17.63
2023-02-08T22:17:57.743Z,17.85
2023-02-08T22:20:26.465Z,17.13
2023-02-08T22:22:55.369Z,17.42
2023-02-08T22:25:23.974Z,19.20
2023-02-08T22:27:52.021Z,18.45
2023-02-08T22:30:19.629Z,21.15
2023-02-08T22:32:48.344Z,18.85
2023-02-08T22:35:17.033Z,16.75
2023-02-08T22:37:44.875Z,15.68
2023-02-08T22:40:13.009Z,15.90
2023-02-08T22:42:41.622Z,15.30
2023-02-08T22:45:09.729Z,16.80
2023-02-08T22:47:37.272Z,15.77
2023-02-08T22:50:06.244Z,15.73
2023-02-08T22:52:34.641Z,15.68
2023-02-08T22:55:05.036Z,15.23
2023-02-08T22:57:34.591Z,15.85
2023-02-08T23:00:02.839Z,16.02
2023-02-08T23:02:30.551Z,15.38
2023-02-08T23:04:58.111Z,14.77
2023-02-08T23:07:25.509Z,15.63
2023-02-08T23:09:52.915Z,15.60
2023-02-08T23:12:20.245Z,14.85
2023-02-08T23:14:49.466Z,14.93
2023-02-08T23:17:17.114Z,15.30
2023-02-08T23:19:44.566Z,16.13
2023-02-08T23:22:11.988Z,15.18
2023-02-08T23:24:39.683Z,14.85
2023-02-08T23:27:07.694Z,15.38
2023-02-08T23:29:35.140Z,15.38
2023-02-08T23:32:02.740Z,14.52
2023-02-08T23:34:30.086Z,14.88
2023-02-08T23:36:57.433Z,15.77
2023-02-08T23:39:24.867Z,18.40
2023-02-08T23:41:54.713Z,17.25
2023-02-08T23:44:22.088Z,17.80
2023-02-08T23:46:49.498Z,17.40
2023-02-08T23:49:17.199Z,17.58
2023-02-08T23:51:44.507Z,17.40
2023-02-08T23:54:11.933Z,17.50
2023-02-08T23:56:39.201Z,17.27
2023-02-08T23:59:08.355Z,17.02
